Terminal Aerodrome Forecast
Issued by NWS

Home | Current Version | Previous Version | Text Only | Print | Product List | Glossary On
Versions: 1 2 3 4 5 6 7 8 9 10 11 12 13 14 15 16 17 18 19
000
FTUS44 KLZK 240900 AAA
TAFADF
TAF AMD
KADF 240901Z 2409/2506 00000KT 3SM BR SCT002
      TEMPO 2409/2413 1/2SM FG VV002
     FM241500 23004KT P6SM SCT050
     FM250000 18003KT P6SM SCT250=

USA.gov is the U.S. government's official web portal to all federal, state and local government web resources and services.